ěÝzenÝ letovÚho provozu ╚eskÚ republiky
Letiste: LKBC Aktualizace: 19.06.2024 02:29:39  UTC
 METAR LKBC 19.06. 02:30 ...
METAR LKBC 190230Z AUTO 00000KT CAVOK 17/14 Q1013=